Terminal Aerodrome Forecast
Issued by NWS

Home | Current Version | Previous Version | Text Only | Print | Product List | Glossary On
Versions: 1 2 3 4 5 6 7 8 9 10 11 12 13
914
FTAK31 PAJN 230521
TAFAJN
TAF
PAJN 230521Z 2306/2406 07005KT P6SM SCT040 OVC070
     FM231500 09006KT P6SM -RASN SCT020 OVC030
     FM240000 10007KT P6SM VCSH SCT030 BKN060=

USA.gov is the U.S. government's official web portal to all federal, state and local government web resources and services.